sensor_id;sensor_type;location;lat;lon;timestamp;P1;durP1;ratioP1;P2;durP2;ratioP2
36931;SDS011;22847;42.654;23.370;2023-06-24T00:01:04;13.70;;;11.63;;
36931;SDS011;22847;42.654;23.370;2023-06-24T00:03:30;15.40;;;11.93;;
36931;SDS011;22847;42.654;23.370;2023-06-24T00:05:56;14.32;;;11.30;;
36931;SDS011;22847;42.654;23.370;2023-06-24T00:08:22;18.73;;;11.85;;
36931;SDS011;22847;42.654;23.370;2023-06-24T00:10:47;17.27;;;11.90;;
36931;SDS011;22847;42.654;23.370;2023-06-24T00:13:13;14.88;;;11.90;;
36931;SDS011;22847;42.654;23.370;2023-06-24T00:15:40;13.10;;;11.27;;
36931;SDS011;22847;42.654;23.370;2023-06-24T00:18:09;17.35;;;12.50;;
36931;SDS011;22847;42.654;23.370;2023-06-24T00:20:35;14.07;;;11.43;;
36931;SDS011;22847;42.654;23.370;2023-06-24T00:23:01;15.38;;;11.10;;
36931;SDS011;22847;42.654;23.370;2023-06-24T00:25:26;14.52;;;11.40;;
36931;SDS011;22847;42.654;23.370;2023-06-24T00:27:52;13.10;;;11.40;;
36931;SDS011;22847;42.654;23.370;2023-06-24T00:30:17;14.93;;;12.07;;
36931;SDS011;22847;42.654;23.370;2023-06-24T00:32:43;17.85;;;11.68;;
36931;SDS011;22847;42.654;23.370;2023-06-24T00:35:09;16.88;;;11.82;;
36931;SDS011;22847;42.654;23.370;2023-06-24T00:37:37;13.20;;;11.70;;
36931;SDS011;22847;42.654;23.370;2023-06-24T00:40:03;21.40;;;12.07;;
36931;SDS011;22847;42.654;23.370;2023-06-24T00:42:30;16.10;;;12.18;;
36931;SDS011;22847;42.654;23.370;2023-06-24T00:44:56;19.08;;;12.65;;
36931;SDS011;22847;42.654;23.370;2023-06-24T00:47:21;16.10;;;11.65;;
36931;SDS011;22847;42.654;23.370;2023-06-24T00:49:47;17.63;;;11.88;;
36931;SDS011;22847;42.654;23.370;2023-06-24T00:52:13;18.88;;;12.13;;
36931;SDS011;22847;42.654;23.370;2023-06-24T00:54:44;18.90;;;11.98;;
36931;SDS011;22847;42.654;23.370;2023-06-24T00:57:09;18.52;;;12.10;;
36931;SDS011;22847;42.654;23.370;2023-06-24T00:59:35;14.50;;;11.38;;
36931;SDS011;22847;42.654;23.370;2023-06-24T01:02:03;17.80;;;12.15;;
36931;SDS011;22847;42.654;23.370;2023-06-24T01:04:30;18.08;;;12.45;;
36931;SDS011;22847;42.654;23.370;2023-06-24T01:06:58;17.33;;;12.30;;
36931;SDS011;22847;42.654;23.370;2023-06-24T01:09:24;17.40;;;12.90;;
36931;SDS011;22847;42.654;23.370;2023-06-24T01:11:50;18.77;;;13.02;;
36931;SDS011;22847;42.654;23.370;2023-06-24T01:14:16;19.33;;;12.73;;
36931;SDS011;22847;42.654;23.370;2023-06-24T01:17:05;15.25;;;12.05;;
36931;SDS011;22847;42.654;23.370;2023-06-24T01:25:36;18.30;;;13.05;;
36931;SDS011;22847;42.654;23.370;2023-06-24T01:31:00;19.50;;;12.38;;
36931;SDS011;22847;42.654;23.370;2023-06-24T01:36:54;17.55;;;12.48;;
36931;SDS011;22847;42.654;23.370;2023-06-24T01:39:31;17.65;;;12.18;;
36931;SDS011;22847;42.654;23.370;2023-06-24T01:42:05;18.02;;;12.60;;
36931;SDS011;22847;42.654;23.370;2023-06-24T01:44:35;19.17;;;12.20;;
36931;SDS011;22847;42.654;23.370;2023-06-24T01:47:02;18.88;;;11.27;;
36931;SDS011;22847;42.654;23.370;2023-06-24T01:49:31;14.60;;;12.27;;
36931;SDS011;22847;42.654;23.370;2023-06-24T01:51:58;17.88;;;12.38;;
36931;SDS011;22847;42.654;23.370;2023-06-24T01:54:28;19.42;;;12.48;;
36931;SDS011;22847;42.654;23.370;2023-06-24T01:56:55;17.27;;;11.75;;
36931;SDS011;22847;42.654;23.370;2023-06-24T01:59:24;15.05;;;12.10;;
36931;SDS011;22847;42.654;23.370;2023-06-24T02:01:53;14.93;;;12.57;;
36931;SDS011;22847;42.654;23.370;2023-06-24T02:04:19;15.18;;;11.70;;
36931;SDS011;22847;42.654;23.370;2023-06-24T02:06:46;14.40;;;11.75;;
36931;SDS011;22847;42.654;23.370;2023-06-24T02:09:12;15.48;;;11.32;;
36931;SDS011;22847;42.654;23.370;2023-06-24T02:11:40;20.50;;;12.10;;
36931;SDS011;22847;42.654;23.370;2023-06-24T02:14:07;16.38;;;11.77;;
36931;SDS011;22847;42.654;23.370;2023-06-24T02:16:35;16.13;;;12.38;;
36931;SDS011;22847;42.654;23.370;2023-06-24T02:19:01;14.85;;;11.70;;
36931;SDS011;22847;42.654;23.370;2023-06-24T02:21:29;16.02;;;12.68;;
36931;SDS011;22847;42.654;23.370;2023-06-24T02:23:56;15.75;;;12.57;;
36931;SDS011;22847;42.654;23.370;2023-06-24T02:26:22;19.58;;;12.88;;
36931;SDS011;22847;42.654;23.370;2023-06-24T02:28:50;17.60;;;12.77;;
36931;SDS011;22847;42.654;23.370;2023-06-24T02:31:17;20.52;;;13.50;;
36931;SDS011;22847;42.654;23.370;2023-06-24T02:33:42;20.95;;;12.73;;
36931;SDS011;22847;42.654;23.370;2023-06-24T02:36:08;18.73;;;13.20;;
36931;SDS011;22847;42.654;23.370;2023-06-24T02:38:35;18.80;;;13.38;;
36931;SDS011;22847;42.654;23.370;2023-06-24T02:41:00;18.88;;;13.38;;
36931;SDS011;22847;42.654;23.370;2023-06-24T02:43:29;20.55;;;13.00;;
36931;SDS011;22847;42.654;23.370;2023-06-24T02:45:55;15.35;;;13.00;;
36931;SDS011;22847;42.654;23.370;2023-06-24T02:48:21;18.58;;;14.27;;
36931;SDS011;22847;42.654;23.370;2023-06-24T02:50:47;25.10;;;13.60;;
36931;SDS011;22847;42.654;23.370;2023-06-24T02:53:14;21.67;;;14.02;;
36931;SDS011;22847;42.654;23.370;2023-06-24T02:55:40;24.02;;;14.88;;
36931;SDS011;22847;42.654;23.370;2023-06-24T02:58:08;18.52;;;14.77;;
36931;SDS011;22847;42.654;23.370;2023-06-24T03:00:35;18.33;;;14.25;;
36931;SDS011;22847;42.654;23.370;2023-06-24T03:03:02;21.98;;;14.27;;
36931;SDS011;22847;42.654;23.370;2023-06-24T03:05:30;20.00;;;14.40;;
36931;SDS011;22847;42.654;23.370;2023-06-24T03:07:57;21.77;;;15.70;;
36931;SDS011;22847;42.654;23.370;2023-06-24T03:10:23;24.85;;;14.95;;
36931;SDS011;22847;42.654;23.370;2023-06-24T03:12:52;21.13;;;14.45;;
36931;SDS011;22847;42.654;23.370;2023-06-24T03:15:18;23.90;;;15.48;;
36931;SDS011;22847;42.654;23.370;2023-06-24T03:17:44;20.27;;;15.18;;
36931;SDS011;22847;42.654;23.370;2023-06-24T03:20:10;23.00;;;15.15;;
36931;SDS011;22847;42.654;23.370;2023-06-24T03:22:35;19.90;;;15.05;;
36931;SDS011;22847;42.654;23.370;2023-06-24T03:25:01;20.10;;;15.48;;
36931;SDS011;22847;42.654;23.370;2023-06-24T03:27:26;24.10;;;15.10;;
36931;SDS011;22847;42.654;23.370;2023-06-24T03:29:52;24.67;;;15.07;;
36931;SDS011;22847;42.654;23.370;2023-06-24T03:32:17;21.90;;;15.93;;
36931;SDS011;22847;42.654;23.370;2023-06-24T03:34:43;30.55;;;16.38;;
36931;SDS011;22847;42.654;23.370;2023-06-24T03:37:08;24.50;;;16.30;;
36931;SDS011;22847;42.654;23.370;2023-06-24T03:39:34;25.73;;;15.55;;
36931;SDS011;22847;42.654;23.370;2023-06-24T03:41:59;27.42;;;15.50;;
36931;SDS011;22847;42.654;23.370;2023-06-24T03:44:25;25.63;;;15.18;;
36931;SDS011;22847;42.654;23.370;2023-06-24T03:46:51;23.85;;;14.73;;
36931;SDS011;22847;42.654;23.370;2023-06-24T03:49:16;24.92;;;15.65;;
36931;SDS011;22847;42.654;23.370;2023-06-24T03:51:43;18.58;;;14.45;;
36931;SDS011;22847;42.654;23.370;2023-06-24T03:54:09;22.30;;;14.75;;
36931;SDS011;22847;42.654;23.370;2023-06-24T03:56:34;25.95;;;15.48;;
36931;SDS011;22847;42.654;23.370;2023-06-24T03:59:00;21.33;;;14.73;;
36931;SDS011;22847;42.654;23.370;2023-06-24T04:01:25;24.27;;;15.45;;
36931;SDS011;22847;42.654;23.370;2023-06-24T04:03:50;21.83;;;16.33;;
36931;SDS011;22847;42.654;23.370;2023-06-24T04:06:16;24.02;;;16.70;;
36931;SDS011;22847;42.654;23.370;2023-06-24T04:08:42;27.35;;;16.98;;
36931;SDS011;22847;42.654;23.370;2023-06-24T04:11:08;22.48;;;16.67;;
36931;SDS011;22847;42.654;23.370;2023-06-24T04:13:33;24.48;;;17.02;;
36931;SDS011;22847;42.654;23.370;2023-06-24T04:15:59;26.30;;;17.00;;
36931;SDS011;22847;42.654;23.370;2023-06-24T04:18:24;23.60;;;15.68;;
36931;SDS011;22847;42.654;23.370;2023-06-24T04:20:50;26.75;;;16.98;;
36931;SDS011;22847;42.654;23.370;2023-06-24T04:23:15;21.30;;;16.98;;
36931;SDS011;22847;42.654;23.370;2023-06-24T04:25:41;23.35;;;17.83;;
36931;SDS011;22847;42.654;23.370;2023-06-24T04:28:07;26.50;;;17.20;;
36931;SDS011;22847;42.654;23.370;2023-06-24T04:30:33;20.38;;;16.30;;
36931;SDS011;22847;42.654;23.370;2023-06-24T04:33:00;24.08;;;16.60;;
36931;SDS011;22847;42.654;23.370;2023-06-24T04:35:26;22.48;;;16.75;;
36931;SDS011;22847;42.654;23.370;2023-06-24T04:37:51;20.08;;;15.98;;
36931;SDS011;22847;42.654;23.370;2023-06-24T04:40:17;29.98;;;21.95;;
36931;SDS011;22847;42.654;23.370;2023-06-24T04:42:44;24.23;;;16.20;;
36931;SDS011;22847;42.654;23.370;2023-06-24T04:45:10;25.65;;;16.10;;
36931;SDS011;22847;42.654;23.370;2023-06-24T04:47:35;26.20;;;15.40;;
36931;SDS011;22847;42.654;23.370;2023-06-24T04:50:01;28.73;;;15.52;;
36931;SDS011;22847;42.654;23.370;2023-06-24T04:52:27;19.17;;;14.88;;
36931;SDS011;22847;42.654;23.370;2023-06-24T04:54:52;24.95;;;15.02;;
36931;SDS011;22847;42.654;23.370;2023-06-24T04:57:30;22.60;;;14.95;;
36931;SDS011;22847;42.654;23.370;2023-06-24T04:59:57;20.42;;;13.18;;
36931;SDS011;22847;42.654;23.370;2023-06-24T05:02:23;14.82;;;12.60;;
36931;SDS011;22847;42.654;23.370;2023-06-24T05:04:49;18.25;;;13.00;;
36931;SDS011;22847;42.654;23.370;2023-06-24T05:07:17;18.58;;;12.63;;
36931;SDS011;22847;42.654;23.370;2023-06-24T05:09:43;17.63;;;11.63;;
36931;SDS011;22847;42.654;23.370;2023-06-24T05:12:10;15.65;;;12.45;;
36931;SDS011;22847;42.654;23.370;2023-06-24T05:14:35;16.15;;;11.82;;
36931;SDS011;22847;42.654;23.370;2023-06-24T05:17:02;16.80;;;11.73;;
36931;SDS011;22847;42.654;23.370;2023-06-24T05:19:30;14.43;;;11.25;;
36931;SDS011;22847;42.654;23.370;2023-06-24T05:21:56;17.83;;;11.48;;
36931;SDS011;22847;42.654;23.370;2023-06-24T05:24:22;16.02;;;11.18;;
36931;SDS011;22847;42.654;23.370;2023-06-24T05:26:47;18.00;;;11.52;;
36931;SDS011;22847;42.654;23.370;2023-06-24T05:29:14;12.98;;;11.18;;
36931;SDS011;22847;42.654;23.370;2023-06-24T05:31:40;15.38;;;12.35;;
36931;SDS011;22847;42.654;23.370;2023-06-24T05:34:06;16.67;;;12.27;;
36931;SDS011;22847;42.654;23.370;2023-06-24T05:36:31;20.67;;;11.43;;
36931;SDS011;22847;42.654;23.370;2023-06-24T05:38:57;17.48;;;12.73;;
36931;SDS011;22847;42.654;23.370;2023-06-24T05:41:22;20.35;;;13.85;;
36931;SDS011;22847;42.654;23.370;2023-06-24T05:43:47;24.73;;;15.68;;
36931;SDS011;22847;42.654;23.370;2023-06-24T05:46:13;27.05;;;16.33;;
36931;SDS011;22847;42.654;23.370;2023-06-24T05:48:38;26.63;;;17.75;;
36931;SDS011;22847;42.654;23.370;2023-06-24T05:51:04;25.08;;;17.80;;
36931;SDS011;22847;42.654;23.370;2023-06-24T05:53:29;34.05;;;18.15;;
36931;SDS011;22847;42.654;23.370;2023-06-24T05:55:55;25.08;;;17.20;;
36931;SDS011;22847;42.654;23.370;2023-06-24T05:58:20;28.17;;;18.23;;
36931;SDS011;22847;42.654;23.370;2023-06-24T06:00:46;32.20;;;18.83;;
36931;SDS011;22847;42.654;23.370;2023-06-24T06:03:11;29.88;;;19.23;;
36931;SDS011;22847;42.654;23.370;2023-06-24T06:05:36;36.58;;;17.92;;
36931;SDS011;22847;42.654;23.370;2023-06-24T06:08:02;24.77;;;17.60;;
36931;SDS011;22847;42.654;23.370;2023-06-24T06:10:28;23.52;;;15.63;;
36931;SDS011;22847;42.654;23.370;2023-06-24T06:12:53;21.60;;;15.32;;
36931;SDS011;22847;42.654;23.370;2023-06-24T06:15:19;24.52;;;16.73;;
36931;SDS011;22847;42.654;23.370;2023-06-24T06:17:45;21.73;;;15.20;;
36931;SDS011;22847;42.654;23.370;2023-06-24T06:20:11;21.70;;;14.57;;
36931;SDS011;22847;42.654;23.370;2023-06-24T06:22:37;21.83;;;14.13;;
36931;SDS011;22847;42.654;23.370;2023-06-24T06:25:04;23.00;;;14.10;;
36931;SDS011;22847;42.654;23.370;2023-06-24T06:27:30;22.33;;;14.20;;
36931;SDS011;22847;42.654;23.370;2023-06-24T06:29:56;18.95;;;14.07;;
36931;SDS011;22847;42.654;23.370;2023-06-24T06:32:21;18.27;;;14.02;;
36931;SDS011;22847;42.654;23.370;2023-06-24T06:34:46;16.17;;;12.82;;
36931;SDS011;22847;42.654;23.370;2023-06-24T06:37:12;21.95;;;14.55;;
36931;SDS011;22847;42.654;23.370;2023-06-24T06:39:37;22.05;;;14.30;;
36931;SDS011;22847;42.654;23.370;2023-06-24T06:42:03;16.10;;;12.25;;
36931;SDS011;22847;42.654;23.370;2023-06-24T06:44:28;17.38;;;15.27;;
36931;SDS011;22847;42.654;23.370;2023-06-24T06:46:54;17.52;;;13.57;;
36931;SDS011;22847;42.654;23.370;2023-06-24T06:49:19;17.15;;;13.73;;
36931;SDS011;22847;42.654;23.370;2023-06-24T06:51:44;19.40;;;12.00;;
36931;SDS011;22847;42.654;23.370;2023-06-24T06:54:10;18.20;;;12.77;;
36931;SDS011;22847;42.654;23.370;2023-06-24T06:56:35;19.25;;;11.85;;
36931;SDS011;22847;42.654;23.370;2023-06-24T06:59:00;18.83;;;12.82;;
36931;SDS011;22847;42.654;23.370;2023-06-24T07:01:26;15.27;;;12.50;;
36931;SDS011;22847;42.654;23.370;2023-06-24T07:03:51;13.45;;;11.65;;
36931;SDS011;22847;42.654;23.370;2023-06-24T07:06:20;18.42;;;11.88;;
36931;SDS011;22847;42.654;23.370;2023-06-24T07:08:45;16.80;;;12.52;;
36931;SDS011;22847;42.654;23.370;2023-06-24T07:11:11;15.20;;;12.10;;
36931;SDS011;22847;42.654;23.370;2023-06-24T07:13:36;17.05;;;12.05;;
36931;SDS011;22847;42.654;23.370;2023-06-24T07:16:02;14.48;;;12.18;;
36931;SDS011;22847;42.654;23.370;2023-06-24T07:18:27;16.73;;;11.93;;
36931;SDS011;22847;42.654;23.370;2023-06-24T07:20:55;15.73;;;11.93;;
36931;SDS011;22847;42.654;23.370;2023-06-24T07:23:21;18.30;;;13.23;;
36931;SDS011;22847;42.654;23.370;2023-06-24T07:25:46;17.33;;;12.27;;
36931;SDS011;22847;42.654;23.370;2023-06-24T07:28:12;14.15;;;12.20;;
36931;SDS011;22847;42.654;23.370;2023-06-24T07:30:37;13.95;;;12.38;;
36931;SDS011;22847;42.654;23.370;2023-06-24T07:33:02;21.88;;;13.02;;
36931;SDS011;22847;42.654;23.370;2023-06-24T07:35:30;16.52;;;14.02;;
36931;SDS011;22847;42.654;23.370;2023-06-24T07:37:57;20.75;;;13.10;;
36931;SDS011;22847;42.654;23.370;2023-06-24T07:40:23;18.23;;;13.18;;
36931;SDS011;22847;42.654;23.370;2023-06-24T07:42:48;18.63;;;12.65;;
36931;SDS011;22847;42.654;23.370;2023-06-24T07:45:13;19.73;;;12.98;;
36931;SDS011;22847;42.654;23.370;2023-06-24T07:47:41;21.67;;;13.27;;
36931;SDS011;22847;42.654;23.370;2023-06-24T07:50:06;14.90;;;12.57;;
36931;SDS011;22847;42.654;23.370;2023-06-24T07:52:32;20.50;;;12.80;;
36931;SDS011;22847;42.654;23.370;2023-06-24T07:54:57;19.70;;;12.90;;
36931;SDS011;22847;42.654;23.370;2023-06-24T07:57:25;15.75;;;12.40;;
36931;SDS011;22847;42.654;23.370;2023-06-24T07:59:51;16.05;;;12.18;;
36931;SDS011;22847;42.654;23.370;2023-06-24T08:02:17;14.85;;;11.80;;
36931;SDS011;22847;42.654;23.370;2023-06-24T08:04:42;14.88;;;12.05;;
36931;SDS011;22847;42.654;23.370;2023-06-24T08:07:08;16.42;;;11.68;;
36931;SDS011;22847;42.654;23.370;2023-06-24T08:09:33;16.00;;;12.02;;
36931;SDS011;22847;42.654;23.370;2023-06-24T08:11:58;17.75;;;12.70;;
36931;SDS011;22847;42.654;23.370;2023-06-24T08:14:24;13.98;;;11.30;;
36931;SDS011;22847;42.654;23.370;2023-06-24T08:16:49;16.95;;;11.98;;
36931;SDS011;22847;42.654;23.370;2023-06-24T08:19:15;19.60;;;12.30;;
36931;SDS011;22847;42.654;23.370;2023-06-24T08:21:40;20.10;;;12.07;;
36931;SDS011;22847;42.654;23.370;2023-06-24T08:24:06;18.60;;;11.43;;
36931;SDS011;22847;42.654;23.370;2023-06-24T08:26:31;15.52;;;12.57;;
36931;SDS011;22847;42.654;23.370;2023-06-24T08:28:57;13.43;;;11.23;;
36931;SDS011;22847;42.654;23.370;2023-06-24T08:31:24;18.70;;;12.55;;
36931;SDS011;22847;42.654;23.370;2023-06-24T08:33:51;13.52;;;10.80;;
36931;SDS011;22847;42.654;23.370;2023-06-24T08:36:18;17.30;;;12.23;;
36931;SDS011;22847;42.654;23.370;2023-06-24T08:38:44;20.80;;;12.70;;
36931;SDS011;22847;42.654;23.370;2023-06-24T08:41:09;12.40;;;11.10;;
36931;SDS011;22847;42.654;23.370;2023-06-24T08:43:34;13.00;;;11.40;;
36931;SDS011;22847;42.654;23.370;2023-06-24T08:46:00;13.90;;;11.20;;
36931;SDS011;22847;42.654;23.370;2023-06-24T08:48:25;14.55;;;11.23;;
36931;SDS011;22847;42.654;23.370;2023-06-24T08:50:55;14.60;;;11.20;;
36931;SDS011;22847;42.654;23.370;2023-06-24T08:53:23;12.73;;;11.38;;
36931;SDS011;22847;42.654;23.370;2023-06-24T08:55:51;16.25;;;11.52;;
36931;SDS011;22847;42.654;23.370;2023-06-24T08:58:19;12.70;;;11.40;;
36931;SDS011;22847;42.654;23.370;2023-06-24T09:00:44;15.18;;;11.98;;
36931;SDS011;22847;42.654;23.370;2023-06-24T09:03:10;17.70;;;11.95;;
36931;SDS011;22847;42.654;23.370;2023-06-24T09:05:35;15.55;;;12.13;;
36931;SDS011;22847;42.654;23.370;2023-06-24T09:08:01;13.43;;;11.82;;
36931;SDS011;22847;42.654;23.370;2023-06-24T09:10:33;17.45;;;11.80;;
36931;SDS011;22847;42.654;23.370;2023-06-24T09:13:04;16.58;;;11.77;;
36931;SDS011;22847;42.654;23.370;2023-06-24T09:15:31;26.50;;;14.77;;
36931;SDS011;22847;42.654;23.370;2023-06-24T09:17:57;15.15;;;12.80;;
36931;SDS011;22847;42.654;23.370;2023-06-24T09:20:25;23.27;;;14.07;;
36931;SDS011;22847;42.654;23.370;2023-06-24T09:22:51;20.88;;;12.13;;
36931;SDS011;22847;42.654;23.370;2023-06-24T09:25:17;16.92;;;11.27;;
36931;SDS011;22847;42.654;23.370;2023-06-24T09:27:47;24.63;;;13.57;;
36931;SDS011;22847;42.654;23.370;2023-06-24T09:30:20;13.85;;;11.45;;
36931;SDS011;22847;42.654;23.370;2023-06-24T09:32:50;21.48;;;12.60;;
36931;SDS011;22847;42.654;23.370;2023-06-24T09:35:17;16.42;;;11.73;;
36931;SDS011;22847;42.654;23.370;2023-06-24T09:40:16;18.90;;;11.20;;
36931;SDS011;22847;42.654;23.370;2023-06-24T09:42:49;11.57;;;10.38;;
36931;SDS011;22847;42.654;23.370;2023-06-24T09:45:18;21.85;;;11.38;;
36931;SDS011;22847;42.654;23.370;2023-06-24T09:47:54;14.88;;;10.98;;
36931;SDS011;22847;42.654;23.370;2023-06-24T09:50:21;16.45;;;11.27;;
36931;SDS011;22847;42.654;23.370;2023-06-24T09:52:47;16.15;;;11.45;;
36931;SDS011;22847;42.654;23.370;2023-06-24T09:55:14;12.07;;;10.77;;
36931;SDS011;22847;42.654;23.370;2023-06-24T09:57:47;16.13;;;12.30;;
36931;SDS011;22847;42.654;23.370;2023-06-24T10:00:17;13.70;;;11.88;;
36931;SDS011;22847;42.654;23.370;2023-06-24T10:02:44;17.80;;;11.40;;
36931;SDS011;22847;42.654;23.370;2023-06-24T10:05:10;12.02;;;10.73;;
36931;SDS011;22847;42.654;23.370;2023-06-24T10:07:38;15.50;;;11.35;;
36931;SDS011;22847;42.654;23.370;2023-06-24T10:10:04;14.63;;;11.18;;
36931;SDS011;22847;42.654;23.370;2023-06-24T10:12:31;17.42;;;11.65;;
36931;SDS011;22847;42.654;23.370;2023-06-24T10:14:57;13.13;;;10.27;;
36931;SDS011;22847;42.654;23.370;2023-06-24T10:17:24;13.70;;;11.05;;
36931;SDS011;22847;42.654;23.370;2023-06-24T10:19:51;14.68;;;10.48;;
36931;SDS011;22847;42.654;23.370;2023-06-24T10:22:20;15.65;;;11.50;;
36931;SDS011;22847;42.654;23.370;2023-06-24T10:24:48;14.70;;;10.38;;
36931;SDS011;22847;42.654;23.370;2023-06-24T10:27:17;14.82;;;11.20;;
36931;SDS011;22847;42.654;23.370;2023-06-24T10:29:47;18.30;;;10.93;;
36931;SDS011;22847;42.654;23.370;2023-06-24T10:32:13;13.88;;;9.93;;
36931;SDS011;22847;42.654;23.370;2023-06-24T10:34:46;15.45;;;10.00;;
36931;SDS011;22847;42.654;23.370;2023-06-24T10:37:14;14.43;;;10.27;;
36931;SDS011;22847;42.654;23.370;2023-06-24T10:39:53;13.65;;;9.50;;
36931;SDS011;22847;42.654;23.370;2023-06-24T10:47:42;13.13;;;10.77;;
36931;SDS011;22847;42.654;23.370;2023-06-24T10:50:19;14.65;;;12.63;;
36931;SDS011;22847;42.654;23.370;2023-06-24T10:52:47;14.85;;;9.52;;
36931;SDS011;22847;42.654;23.370;2023-06-24T10:55:14;13.68;;;10.40;;
36931;SDS011;22847;42.654;23.370;2023-06-24T10:57:41;12.73;;;9.90;;
36931;SDS011;22847;42.654;23.370;2023-06-24T11:00:06;12.35;;;9.77;;
36931;SDS011;22847;42.654;23.370;2023-06-24T11:02:32;15.82;;;9.85;;
36931;SDS011;22847;42.654;23.370;2023-06-24T11:04:59;13.30;;;8.23;;
36931;SDS011;22847;42.654;23.370;2023-06-24T11:07:32;12.27;;;9.35;;
36931;SDS011;22847;42.654;23.370;2023-06-24T11:12:32;13.60;;;9.07;;
36931;SDS011;22847;42.654;23.370;2023-06-24T11:15:03;12.95;;;8.98;;
36931;SDS011;22847;42.654;23.370;2023-06-24T11:17:33;10.07;;;7.43;;
36931;SDS011;22847;42.654;23.370;2023-06-24T11:19:59;11.80;;;9.65;;
36931;SDS011;22847;42.654;23.370;2023-06-24T11:22:25;10.85;;;7.88;;
36931;SDS011;22847;42.654;23.370;2023-06-24T11:24:52;13.68;;;8.38;;
36931;SDS011;22847;42.654;23.370;2023-06-24T11:27:23;9.73;;;7.78;;
36931;SDS011;22847;42.654;23.370;2023-06-24T11:29:51;11.57;;;8.15;;
36931;SDS011;22847;42.654;23.370;2023-06-24T11:32:18;9.15;;;7.93;;
36931;SDS011;22847;42.654;23.370;2023-06-24T11:34:43;15.95;;;7.88;;
36931;SDS011;22847;42.654;23.370;2023-06-24T11:37:09;10.68;;;8.10;;
36931;SDS011;22847;42.654;23.370;2023-06-24T11:39:36;11.55;;;7.88;;
36931;SDS011;22847;42.654;23.370;2023-06-24T11:42:02;12.27;;;7.93;;
36931;SDS011;22847;42.654;23.370;2023-06-24T11:44:27;12.35;;;8.82;;
36931;SDS011;22847;42.654;23.370;2023-06-24T11:47:02;9.88;;;8.50;;
36931;SDS011;22847;42.654;23.370;2023-06-24T11:49:32;15.57;;;11.80;;
36931;SDS011;22847;42.654;23.370;2023-06-24T11:51:57;14.20;;;9.18;;
36931;SDS011;22847;42.654;23.370;2023-06-24T11:54:23;13.35;;;9.30;;
36931;SDS011;22847;42.654;23.370;2023-06-24T11:56:52;10.27;;;8.65;;
36931;SDS011;22847;42.654;23.370;2023-06-24T11:59:22;10.65;;;8.57;;
36931;SDS011;22847;42.654;23.370;2023-06-24T12:01:53;13.25;;;9.27;;
36931;SDS011;22847;42.654;23.370;2023-06-24T12:04:29;10.82;;;8.57;;
36931;SDS011;22847;42.654;23.370;2023-06-24T12:06:55;14.53;;;9.03;;
36931;SDS011;22847;42.654;23.370;2023-06-24T12:09:21;9.70;;;8.73;;
36931;SDS011;22847;42.654;23.370;2023-06-24T12:11:47;17.33;;;11.93;;
36931;SDS011;22847;42.654;23.370;2023-06-24T12:14:12;13.45;;;8.43;;
36931;SDS011;22847;42.654;23.370;2023-06-24T12:16:38;12.18;;;8.73;;
36931;SDS011;22847;42.654;23.370;2023-06-24T12:19:05;11.63;;;8.38;;
36931;SDS011;22847;42.654;23.370;2023-06-24T12:21:30;12.50;;;8.95;;
36931;SDS011;22847;42.654;23.370;2023-06-24T12:23:56;17.55;;;13.10;;
36931;SDS011;22847;42.654;23.370;2023-06-24T12:26:22;13.13;;;8.70;;
36931;SDS011;22847;42.654;23.370;2023-06-24T12:28:47;12.32;;;9.15;;
36931;SDS011;22847;42.654;23.370;2023-06-24T12:31:12;18.38;;;9.35;;
36931;SDS011;22847;42.654;23.370;2023-06-24T12:33:38;14.02;;;9.23;;
36931;SDS011;22847;42.654;23.370;2023-06-24T12:36:03;8.93;;;8.02;;
36931;SDS011;22847;42.654;23.370;2023-06-24T12:38:29;10.95;;;8.32;;
36931;SDS011;22847;42.654;23.370;2023-06-24T12:40:55;9.80;;;8.70;;
36931;SDS011;22847;42.654;23.370;2023-06-24T12:43:21;17.30;;;9.32;;
36931;SDS011;22847;42.654;23.370;2023-06-24T12:45:47;13.95;;;7.97;;
36931;SDS011;22847;42.654;23.370;2023-06-24T12:48:13;10.13;;;8.60;;
36931;SDS011;22847;42.654;23.370;2023-06-24T12:50:39;13.88;;;8.82;;
36931;SDS011;22847;42.654;23.370;2023-06-24T12:53:04;23.38;;;18.50;;
36931;SDS011;22847;42.654;23.370;2023-06-24T12:55:30;15.48;;;13.85;;
36931;SDS011;22847;42.654;23.370;2023-06-24T12:57:55;16.92;;;9.05;;
36931;SDS011;22847;42.654;23.370;2023-06-24T13:00:21;15.32;;;9.43;;
36931;SDS011;22847;42.654;23.370;2023-06-24T13:02:48;11.43;;;9.48;;
36931;SDS011;22847;42.654;23.370;2023-06-24T13:05:14;14.00;;;9.70;;
36931;SDS011;22847;42.654;23.370;2023-06-24T13:07:40;16.38;;;9.05;;
36931;SDS011;22847;42.654;23.370;2023-06-24T13:10:05;11.00;;;8.25;;
36931;SDS011;22847;42.654;23.370;2023-06-24T13:12:32;12.18;;;9.25;;
36931;SDS011;22847;42.654;23.370;2023-06-24T13:14:58;13.63;;;8.80;;
36931;SDS011;22847;42.654;23.370;2023-06-24T13:17:23;13.77;;;8.90;;
36931;SDS011;22847;42.654;23.370;2023-06-24T13:19:49;12.40;;;8.55;;
36931;SDS011;22847;42.654;23.370;2023-06-24T13:22:15;12.82;;;8.63;;
36931;SDS011;22847;42.654;23.370;2023-06-24T13:24:41;12.75;;;8.52;;
36931;SDS011;22847;42.654;23.370;2023-06-24T13:27:07;14.32;;;8.70;;
36931;SDS011;22847;42.654;23.370;2023-06-24T13:29:32;13.23;;;7.93;;
36931;SDS011;22847;42.654;23.370;2023-06-24T13:31:58;9.20;;;8.30;;
36931;SDS011;22847;42.654;23.370;2023-06-24T13:34:23;19.95;;;9.02;;
36931;SDS011;22847;42.654;23.370;2023-06-24T13:36:49;9.98;;;8.85;;
36931;SDS011;22847;42.654;23.370;2023-06-24T13:39:14;26.17;;;11.27;;
36931;SDS011;22847;42.654;23.370;2023-06-24T13:41:42;35.70;;;9.77;;
36931;SDS011;22847;42.654;23.370;2023-06-24T13:44:09;34.78;;;9.32;;
36931;SDS011;22847;42.654;23.370;2023-06-24T13:46:34;15.77;;;7.85;;
36931;SDS011;22847;42.654;23.370;2023-06-24T13:49:00;31.42;;;8.38;;
36931;SDS011;22847;42.654;23.370;2023-06-24T13:51:26;23.27;;;8.43;;
36931;SDS011;22847;42.654;23.370;2023-06-24T13:53:52;26.80;;;8.30;;
36931;SDS011;22847;42.654;23.370;2023-06-24T13:56:19;18.45;;;7.55;;
36931;SDS011;22847;42.654;23.370;2023-06-24T13:58:45;23.25;;;7.38;;
36931;SDS011;22847;42.654;23.370;2023-06-24T14:01:11;14.48;;;6.97;;
36931;SDS011;22847;42.654;23.370;2023-06-24T14:03:37;21.38;;;7.32;;
36931;SDS011;22847;42.654;23.370;2023-06-24T14:06:03;16.50;;;7.18;;
36931;SDS011;22847;42.654;23.370;2023-06-24T14:08:29;17.58;;;7.63;;
36931;SDS011;22847;42.654;23.370;2023-06-24T14:10:56;11.93;;;6.13;;
36931;SDS011;22847;42.654;23.370;2023-06-24T14:13:22;13.05;;;6.60;;
36931;SDS011;22847;42.654;23.370;2023-06-24T14:15:48;14.35;;;7.88;;
36931;SDS011;22847;42.654;23.370;2023-06-24T14:18:13;13.82;;;6.35;;
36931;SDS011;22847;42.654;23.370;2023-06-24T14:20:39;14.63;;;7.13;;
36931;SDS011;22847;42.654;23.370;2023-06-24T14:23:04;13.70;;;6.13;;
36931;SDS011;22847;42.654;23.370;2023-06-24T14:25:30;22.63;;;7.18;;
36931;SDS011;22847;42.654;23.370;2023-06-24T14:27:56;14.50;;;6.70;;
36931;SDS011;22847;42.654;23.370;2023-06-24T14:30:22;10.65;;;6.05;;